Penryn, California
Current Conditions -  °F | °C
As of 12:55 PM on Friday 21 Nov 2014 (Local Time) from KAUN Reporting Station
Scattered Clouds Scattered Clouds  
Wind Chill: 55°   Ceiling: Unl
Heat Index: 55°   Visibility: 10mi
Dew Point: 46°   Wind: 3mph
Humidity: 72%   Direction: 290°WNW
Pressure: 30.08"   Gusts: NA
Location:  38.85°N, 121.17°W
Report Text: KAUN 212055Z AUTO 29003KT 10SM SCT110 13/08 A3008 RMK AO1
Loading
Personal Weather Stations






























Interactive Weather Map New forecast layout! Learn more

10-Day Weather Forecast

Advertisements
Track Severe Weather on mobile